Time;durP1;ratioP1;P1;durP2;ratioP2;P2;SDS_P1;SDS_P2;PMS_P1;PMS_P2;Temp;Humidity;BMP_temperature;BMP_pressure;BME280_temperature;BME280_humidity;BME280_pressure;Samples;Min_cycle;Max_cycle;Signal;HPM_P1;HPM_P2
2021/11/29 00:01:33;;;;;;;320.48;42.47;;;8.00;99.90;;;;;;4980830;28;20026;-94
2021/11/29 00:03:59;;;;;;;171.43;34.30;;;8.00;99.90;;;;;;4981503;28;20026;-94
2021/11/29 00:06:25;;;;;;;197.85;33.15;;;8.00;99.90;;;;;;4980609;28;20030;-94
2021/11/29 00:08:51;;;;;;;285.08;40.72;;;8.10;99.90;;;;;;4980371;28;20034;-93
2021/11/29 00:11:17;;;;;;;209.65;35.42;;;8.10;99.90;;;;;;4980532;28;20473;-94
2021/11/29 00:13:42;;;;;;;211.05;37.72;;;8.10;99.90;;;;;;4980196;28;20027;-94
2021/11/29 00:16:09;;;;;;;203.73;36.53;;;8.00;99.90;;;;;;4980312;28;20131;-95
2021/11/29 00:18:35;;;;;;;175.20;36.33;;;8.10;99.90;;;;;;4980431;28;20122;-95
2021/11/29 00:21:01;;;;;;;166.20;34.78;;;8.00;99.90;;;;;;4980124;28;20022;-95
2021/11/29 00:23:27;;;;;;;183.07;36.10;;;8.00;99.90;;;;;;4980218;28;20029;-95
2021/11/29 00:25:53;;;;;;;195.73;36.35;;;8.00;99.90;;;;;;4981372;28;20030;-96
2021/11/29 00:28:19;;;;;;;158.73;32.72;;;8.00;99.90;;;;;;4980484;28;20023;-95
2021/11/29 00:30:45;;;;;;;163.70;33.10;;;8.00;99.90;;;;;;4980563;28;20057;-96
2021/11/29 00:33:11;;;;;;;163.10;31.95;;;8.10;99.90;;;;;;4980479;28;20097;-95
2021/11/29 00:35:37;;;;;;;141.05;30.98;;;8.10;99.90;;;;;;4980243;28;20029;-96
2021/11/29 00:38:08;;;;;;;140.98;30.80;;;8.10;99.90;;;;;;4980302;28;20473;-95
2021/11/29 00:40:34;;;;;;;118.53;26.23;;;8.10;99.90;;;;;;4980133;28;20030;-96
2021/11/29 00:43:00;;;;;;;113.95;27.80;;;8.10;99.90;;;;;;4980230;28;20034;-96
2021/11/29 00:45:26;;;;;;;123.53;28.63;;;8.20;99.90;;;;;;4980922;28;20493;-96
2021/11/29 00:47:52;;;;;;;112.32;28.33;;;8.20;99.90;;;;;;4982018;28;20489;-96
2021/11/29 00:50:20;;;;;;;130.90;28.73;;;8.20;99.90;;;;;;4981700;28;20023;-96
2021/11/29 00:52:45;;;;;;;142.38;31.20;;;8.20;99.90;;;;;;4980634;28;20030;-95
2021/11/29 00:55:13;;;;;;;167.68;31.38;;;8.20;99.90;;;;;;4981951;28;20472;-95
2021/11/29 00:57:40;;;;;;;159.13;31.42;;;8.20;99.90;;;;;;4983284;28;20085;-96
2021/11/29 01:00:18;;;;;;;241.15;44.50;;;8.10;99.90;;;;;;4982720;28;20472;-96
2021/11/29 01:02:44;;;;;;;185.18;36.40;;;8.10;99.90;;;;;;4982066;28;20137;-96
2021/11/29 01:05:10;;;;;;;136.57;34.13;;;8.10;99.90;;;;;;4980399;28;20030;-96
2021/11/29 01:07:36;;;;;;;131.55;33.50;;;8.10;99.90;;;;;;4981390;28;20500;-96
2021/11/29 01:10:05;;;;;;;133.70;33.92;;;8.10;99.90;;;;;;4983053;28;20022;-96
2021/11/29 01:12:31;;;;;;;149.55;36.20;;;8.00;99.90;;;;;;4982679;28;20026;-96
2021/11/29 01:14:58;;;;;;;172.95;40.03;;;8.10;99.90;;;;;;4966296;28;20026;-96
2021/11/29 01:17:23;;;;;;;137.32;37.72;;;8.00;99.90;;;;;;4981989;28;20023;-96
2021/11/29 01:19:50;;;;;;;221.23;45.95;;;8.00;99.90;;;;;;4980694;28;20034;-96
2021/11/29 01:22:16;;;;;;;111.43;35.95;;;8.00;99.90;;;;;;4980353;28;20036;-96
2021/11/29 01:24:41;;;;;;;174.40;41.78;;;8.00;99.90;;;;;;4980082;28;20057;-96
2021/11/29 01:27:08;;;;;;;147.07;40.67;;;8.00;99.90;;;;;;4979466;28;20031;-95
2021/11/29 01:29:34;;;;;;;178.55;45.17;;;8.00;99.90;;;;;;4979343;28;20160;-95
2021/11/29 01:32:01;;;;;;;162.40;40.67;;;8.00;99.90;;;;;;4978543;28;20053;-96
2021/11/29 01:34:26;;;;;;;145.40;38.63;;;8.00;99.90;;;;;;4979097;28;20037;-95
2021/11/29 01:36:53;;;;;;;144.18;38.28;;;8.00;99.90;;;;;;4978838;28;20393;-95
2021/11/29 01:39:19;;;;;;;154.93;37.78;;;8.00;99.90;;;;;;4978987;28;20026;-96
2021/11/29 01:41:47;;;;;;;137.82;36.95;;;8.10;99.90;;;;;;4978965;28;20097;-95
2021/11/29 01:44:14;;;;;;;134.50;35.33;;;8.10;99.90;;;;;;4978952;28;20022;-96
2021/11/29 01:46:41;;;;;;;117.55;34.17;;;8.10;99.90;;;;;;4979097;28;20499;-96
2021/11/29 01:49:07;;;;;;;129.43;34.70;;;8.20;99.90;;;;;;4978765;28;20022;-96
2021/11/29 01:51:33;;;;;;;100.28;30.75;;;8.20;99.90;;;;;;4978685;28;20045;-95
2021/11/29 01:53:59;;;;;;;106.30;34.33;;;8.20;99.90;;;;;;4978996;28;20064;-96
2021/11/29 01:56:25;;;;;;;103.68;31.67;;;8.30;99.90;;;;;;4978810;28;20491;-95
2021/11/29 01:58:51;;;;;;;132.55;38.38;;;8.30;99.90;;;;;;4978400;28;20061;-96
2021/11/29 02:01:20;;;;;;;116.43;34.75;;;8.30;99.90;;;;;;4980288;28;20468;-96
2021/11/29 02:03:48;;;;;;;105.95;32.25;;;8.30;99.90;;;;;;4979693;28;20443;-96
2021/11/29 02:06:16;;;;;;;101.47;30.95;;;8.40;99.90;;;;;;4978856;28;20030;-95
2021/11/29 02:08:42;;;;;;;97.90;31.80;;;8.40;99.90;;;;;;4978984;28;20027;-96
2021/11/29 02:11:08;;;;;;;91.22;28.23;;;8.40;99.90;;;;;;4978784;28;20033;-96
2021/11/29 02:13:34;;;;;;;92.80;29.48;;;8.40;99.90;;;;;;4979735;28;20109;-96
2021/11/29 02:15:59;;;;;;;91.50;28.98;;;8.40;99.90;;;;;;4979800;28;20069;-95
2021/11/29 02:18:34;;;;;;;85.85;28.05;;;8.40;99.90;;;;;;4979003;28;20060;-96
2021/11/29 02:21:13;;;;;;;78.47;28.73;;;8.40;99.90;;;;;;4979055;28;20050;-96
2021/11/29 02:23:45;;;;;;;89.07;30.08;;;8.50;99.90;;;;;;4978508;28;20022;-96
2021/11/29 02:26:11;;;;;;;75.70;27.55;;;8.50;99.90;;;;;;4978737;28;20022;-96
2021/11/29 02:28:39;;;;;;;71.47;29.08;;;8.50;99.90;;;;;;4979332;28;20481;-96
2021/11/29 02:31:11;;;;;;;88.97;31.38;;;8.50;99.90;;;;;;4978488;28;20026;-96
2021/11/29 02:33:37;;;;;;;87.30;29.67;;;8.60;99.90;;;;;;4978863;28;20018;-96
2021/11/29 02:36:03;;;;;;;79.38;29.63;;;8.60;99.90;;;;;;4981434;28;20049;-96
2021/11/29 02:38:29;;;;;;;80.28;32.50;;;8.60;99.90;;;;;;4978838;28;20492;-96
2021/11/29 02:40:55;;;;;;;85.30;32.35;;;8.50;99.90;;;;;;4979339;28;20034;-96
2021/11/29 02:43:21;;;;;;;86.25;33.05;;;8.60;99.90;;;;;;4978168;28;20044;-96
2021/11/29 02:45:47;;;;;;;88.85;33.08;;;8.60;99.90;;;;;;4978508;28;20384;-96
2021/11/29 02:48:13;;;;;;;85.90;34.03;;;8.60;99.90;;;;;;4978148;28;20029;-96
2021/11/29 02:50:39;;;;;;;89.53;34.22;;;8.50;99.90;;;;;;4977812;28;20026;-96
2021/11/29 02:53:09;;;;;;;72.53;30.25;;;8.50;99.90;;;;;;4978254;28;20113;-96
2021/11/29 02:55:37;;;;;;;74.68;31.55;;;8.60;99.90;;;;;;4979024;28;20095;-95
2021/11/29 02:58:07;;;;;;;79.40;30.33;;;8.60;99.90;;;;;;4978615;28;20062;-96
2021/11/29 03:00:34;;;;;;;66.55;26.45;;;8.60;99.90;;;;;;4978097;28;20030;-96
2021/11/29 03:03:08;;;;;;;89.35;30.58;;;8.60;99.90;;;;;;4977706;28;20022;-95
2021/11/29 03:05:35;;;;;;;77.80;30.00;;;8.50;99.90;;;;;;4977850;28;20056;-95
2021/11/29 03:08:02;;;;;;;79.40;32.50;;;8.50;99.90;;;;;;4977549;28;20122;-96
2021/11/29 03:10:28;;;;;;;70.97;28.75;;;8.50;99.90;;;;;;4977368;28;20025;-95
2021/11/29 03:12:54;;;;;;;72.32;29.02;;;8.50;99.90;;;;;;4977874;28;20121;-95
2021/11/29 03:15:20;;;;;;;82.38;30.80;;;8.50;99.90;;;;;;4977625;28;20022;-95
2021/11/29 03:17:46;;;;;;;72.68;29.88;;;8.50;99.90;;;;;;4977829;28;20074;-95
2021/11/29 03:20:13;;;;;;;80.07;31.80;;;8.50;99.90;;;;;;4977701;28;20049;-95
2021/11/29 03:22:39;;;;;;;75.10;30.30;;;8.50;99.90;;;;;;4977585;28;20034;-96
2021/11/29 03:25:05;;;;;;;73.95;30.05;;;8.50;99.90;;;;;;4977383;28;20023;-96
2021/11/29 03:27:31;;;;;;;72.20;29.17;;;8.60;99.90;;;;;;4977461;28;20117;-95
2021/11/29 03:29:57;;;;;;;72.50;31.55;;;8.60;99.90;;;;;;4977502;28;20487;-96
2021/11/29 03:32:23;;;;;;;74.78;28.83;;;8.50;99.90;;;;;;4977621;28;20060;-96
2021/11/29 03:34:50;;;;;;;71.32;29.08;;;8.60;99.90;;;;;;4977503;28;20469;-96
2021/11/29 03:37:18;;;;;;;81.28;29.52;;;8.60;99.90;;;;;;4977433;28;20178;-96
2021/11/29 03:39:44;;;;;;;71.03;28.10;;;8.60;99.90;;;;;;4977741;28;20030;-95
2021/11/29 03:42:10;;;;;;;77.15;30.20;;;8.60;99.90;;;;;;4978296;28;20121;-96
2021/11/29 03:44:37;;;;;;;69.75;30.77;;;8.60;99.90;;;;;;4977417;28;20042;-96
2021/11/29 03:47:05;;;;;;;73.68;28.88;;;8.60;99.90;;;;;;4977620;28;20069;-96
2021/11/29 03:49:32;;;;;;;65.47;30.38;;;8.60;99.90;;;;;;4977372;28;20026;-96
2021/11/29 03:51:58;;;;;;;68.50;29.95;;;8.60;99.90;;;;;;4977168;28;20023;-96
2021/11/29 03:54:24;;;;;;;71.70;32.13;;;8.60;99.90;;;;;;4978117;28;20022;-96
2021/11/29 03:56:50;;;;;;;73.43;30.55;;;8.60;99.90;;;;;;4980573;28;20049;-96
2021/11/29 03:59:17;;;;;;;71.45;28.90;;;8.70;99.90;;;;;;4981838;28;20077;-95
2021/11/29 04:01:44;;;;;;;66.28;28.05;;;8.70;99.90;;;;;;4981311;28;20030;-93
2021/11/29 04:04:10;;;;;;;70.82;29.23;;;8.70;99.90;;;;;;4980720;28;20030;-94
2021/11/29 04:06:36;;;;;;;64.72;28.30;;;8.70;99.90;;;;;;4982513;28;20382;-96
2021/11/29 04:09:03;;;;;;;65.57;29.38;;;8.70;99.90;;;;;;4985728;28;20027;-96
2021/11/29 04:11:30;;;;;;;65.43;28.83;;;8.70;99.90;;;;;;4983930;28;20022;-96
2021/11/29 04:13:56;;;;;;;62.83;29.17;;;8.80;99.90;;;;;;4983159;28;20019;-96
2021/11/29 04:16:21;;;;;;;62.83;29.00;;;8.80;99.90;;;;;;4983934;28;20033;-96
2021/11/29 04:18:48;;;;;;;59.90;28.50;;;8.80;99.90;;;;;;4981971;28;20033;-94
2021/11/29 04:21:14;;;;;;;60.10;30.40;;;8.90;99.90;;;;;;4980470;28;20030;-96
2021/11/29 04:23:45;;;;;;;71.65;30.13;;;8.80;99.90;;;;;;4981002;28;20038;-92
2021/11/29 04:26:14;;;;;;;65.35;30.58;;;8.80;99.90;;;;;;4980769;28;20022;-95
2021/11/29 04:28:41;;;;;;;63.85;30.35;;;8.80;99.90;;;;;;4980262;28;20180;-96
2021/11/29 04:31:07;;;;;;;69.68;31.10;;;8.90;99.90;;;;;;4980644;28;20054;-94
2021/11/29 04:33:33;;;;;;;60.90;30.98;;;8.90;99.90;;;;;;4980396;28;20023;-96
2021/11/29 04:35:59;;;;;;;66.63;30.88;;;8.90;99.90;;;;;;4980110;28;20042;-96
2021/11/29 04:38:25;;;;;;;64.47;33.10;;;8.90;99.90;;;;;;4980503;28;20027;-95
2021/11/29 04:40:50;;;;;;;64.05;29.35;;;8.90;99.90;;;;;;4980015;28;20027;-95
2021/11/29 04:43:17;;;;;;;60.75;30.00;;;8.90;99.90;;;;;;4979918;28;20465;-95
2021/11/29 04:45:43;;;;;;;61.40;30.05;;;9.00;99.90;;;;;;4980918;28;20082;-96
2021/11/29 04:48:09;;;;;;;66.75;33.08;;;9.00;99.90;;;;;;4980492;28;20023;-96
2021/11/29 04:50:36;;;;;;;69.20;32.85;;;9.00;99.90;;;;;;4980281;28;20072;-96
2021/11/29 04:53:04;;;;;;;60.65;32.15;;;9.00;99.90;;;;;;4980156;28;20031;-96
2021/11/29 04:55:30;;;;;;;70.13;33.58;;;9.00;99.90;;;;;;4979812;28;20026;-96
2021/11/29 04:57:56;;;;;;;77.68;33.42;;;9.00;99.90;;;;;;4979656;28;20405;-96
2021/11/29 05:00:22;;;;;;;83.65;36.40;;;9.00;99.90;;;;;;4980484;28;20057;-95
2021/11/29 05:02:48;;;;;;;81.43;34.92;;;9.10;99.90;;;;;;4986541;28;20117;-96
2021/11/29 05:05:15;;;;;;;74.32;33.63;;;9.10;99.90;;;;;;4986103;28;20026;-95
2021/11/29 05:07:41;;;;;;;68.20;32.78;;;9.10;99.90;;;;;;4990543;28;20030;-95
2021/11/29 14:01:15;;;;;;;173.82;81.75;;;10.10;99.90;;;;;;5093432;28;20826;-93
2021/11/29 14:03:46;;;;;;;137.25;85.72;;;10.00;99.90;;;;;;5092407;28;20036;-94
2021/11/29 14:06:14;;;;;;;202.05;113.50;;;10.10;99.90;;;;;;5093502;28;20120;-93
2021/11/29 14:08:45;;;;;;;135.68;80.15;;;10.10;99.90;;;;;;5096608;28;20439;-93
2021/11/29 14:11:19;;;;;;;168.77;93.15;;;10.20;99.90;;;;;;5082148;28;20039;-93
2021/11/29 14:13:56;;;;;;;156.73;91.55;;;10.20;99.90;;;;;;5096621;28;20031;-94
2021/11/29 14:16:41;;;;;;;196.55;108.20;;;10.20;99.90;;;;;;5098236;28;20024;-93
2021/11/29 14:19:12;;;;;;;206.57;91.78;;;10.30;99.90;;;;;;5096401;28;20025;-93
2021/11/29 14:21:48;;;;;;;152.50;72.40;;;10.30;99.90;;;;;;5095582;28;20115;-93
2021/11/29 14:24:19;;;;;;;190.63;77.47;;;10.30;99.90;;;;;;5095479;28;20021;-93
2021/11/29 14:26:46;;;;;;;;;;;10.30;99.90;;;;;;5095324;28;20032;-94
2021/11/29 14:29:21;;;;;;;224.45;107.65;;;10.20;99.90;;;;;;5094207;28;20417;-93
2021/11/29 14:32:02;;;;;;;209.90;106.53;;;10.20;99.90;;;;;;5093852;28;20036;-93
2021/11/29 14:34:32;;;;;;;179.95;84.05;;;10.20;99.90;;;;;;5092592;28;20025;-92
2021/11/29 14:37:09;;;;;;;155.60;71.97;;;10.30;99.90;;;;;;5094197;28;20026;-93
2021/11/29 14:39:42;;;;;;;149.60;67.28;;;10.30;99.90;;;;;;5097086;28;20039;-93
2021/11/29 14:42:21;;;;;;;305.25;163.13;;;10.30;99.90;;;;;;5093649;28;20382;-91
2021/11/29 14:44:52;;;;;;;134.02;73.05;;;10.30;99.90;;;;;;5090762;28;20024;-91
2021/11/29 14:47:19;;;;;;;;;;;10.30;99.90;;;;;;5092102;28;20027;-92
2021/11/29 14:49:48;;;;;;;139.18;58.83;;;10.30;99.90;;;;;;5093497;28;19930;-91
2021/11/29 14:52:18;;;;;;;122.47;50.08;;;10.40;99.90;;;;;;5092537;28;20054;-93
2021/11/29 14:54:46;;;;;;;118.40;49.72;;;10.40;99.90;;;;;;5091156;28;20040;-90
2021/11/29 14:57:21;;;;;;;84.85;39.47;;;10.40;99.90;;;;;;5089628;28;20478;-88
2021/11/29 14:59:48;;;;;;;98.85;46.63;;;10.40;99.90;;;;;;5089099;28;20478;-89
2021/11/29 15:02:17;;;;;;;81.93;44.03;;;10.50;99.90;;;;;;5089749;28;20043;-90
2021/11/29 15:04:46;;;;;;;93.97;44.28;;;10.50;99.90;;;;;;5089436;28;20474;-87
2021/11/29 15:07:29;;;;;;;88.22;45.35;;;10.50;99.90;;;;;;5086204;28;20470;-90
2021/11/29 15:10:02;;;;;;;81.95;40.80;;;10.50;99.90;;;;;;5089849;28;20115;-89
2021/11/29 15:12:34;;;;;;;79.63;40.70;;;10.50;99.90;;;;;;5075181;28;20024;-88
2021/11/29 15:15:13;;;;;;;79.75;40.67;;;10.50;99.90;;;;;;5081601;28;20433;-88
2021/11/29 15:17:45;;;;;;;88.30;41.72;;;10.50;99.90;;;;;;5075485;28;20048;-88
2021/11/29 15:20:18;;;;;;;92.28;40.83;;;10.50;99.90;;;;;;5075606;28;20031;-91
2021/11/29 15:22:59;;;;;;;128.45;50.00;;;10.50;99.90;;;;;;5076032;28;20032;-91
2021/11/29 15:25:42;;;;;;;113.00;58.15;;;10.40;99.90;;;;;;5071052;28;20497;-89
2021/11/29 15:28:14;;;;;;;92.40;46.60;;;10.40;99.90;;;;;;5055413;28;20045;-89
2021/11/29 15:30:42;;;;;;;96.90;49.45;;;10.40;99.90;;;;;;5055543;28;20025;-88
2021/11/29 15:33:11;;;;;;;56.53;33.78;;;10.40;99.90;;;;;;5055475;28;20391;-88
2021/11/29 15:35:41;;;;;;;62.83;38.58;;;10.40;99.90;;;;;;5055122;28;20029;-88
2021/11/29 15:38:19;;;;;;;;;;;10.40;99.90;;;;;;5055495;28;20116;-89
2021/11/29 15:41:10;;;;;;;223.90;108.93;;;10.40;99.90;;;;;;5054919;28;20294;-88
2021/11/29 15:43:39;;;;;;;46.70;29.83;;;10.40;99.90;;;;;;5054872;28;20166;-91
2021/11/29 15:46:12;;;;;;;54.20;32.17;;;10.40;99.90;;;;;;5055139;28;20029;-88
2021/11/29 15:48:44;;;;;;;39.10;27.05;;;10.40;99.90;;;;;;5055964;28;20402;-90
2021/11/29 15:51:22;;;;;;;42.28;26.13;;;10.40;99.90;;;;;;5055175;28;20494;-87
2021/11/29 15:53:50;;;;;;;41.10;25.83;;;10.40;99.90;;;;;;5059183;28;20378;-89
2021/11/29 15:56:18;;;;;;;26.63;19.27;;;10.40;99.90;;;;;;5058568;28;20462;-89
2021/11/29 15:58:44;;;;;;;71.07;46.50;;;10.50;99.90;;;;;;5058408;28;20203;-93
2021/11/29 16:01:14;;;;;;;49.13;29.73;;;10.40;99.90;;;;;;5042574;28;20474;-91
2021/11/29 16:03:40;;;;;;;47.65;30.60;;;10.40;99.90;;;;;;5047300;28;20028;-91
2021/11/29 16:06:07;;;;;;;34.83;22.85;;;10.30;99.90;;;;;;5059519;28;20024;-90
2021/11/29 16:08:33;;;;;;;39.55;24.67;;;10.30;99.90;;;;;;5061412;28;20025;-90
2021/11/29 16:10:59;;;;;;;38.65;25.55;;;10.30;99.90;;;;;;5059058;28;20036;-92
2021/11/29 16:13:27;;;;;;;28.73;20.45;;;10.30;99.90;;;;;;5059372;28;20056;-90
2021/11/29 16:15:54;;;;;;;28.90;20.70;;;10.20;99.90;;;;;;5059081;28;20025;-90
2021/11/29 16:18:21;;;;;;;27.15;20.27;;;10.20;99.90;;;;;;5061462;28;20115;-91
2021/11/29 16:20:47;;;;;;;35.00;23.95;;;10.10;99.90;;;;;;5058008;28;20028;-92
2021/11/29 16:23:14;;;;;;;33.22;22.08;;;10.10;99.90;;;;;;5057097;28;20390;-91
2021/11/29 16:25:41;;;;;;;58.80;38.30;;;10.10;99.90;;;;;;5058193;28;20028;-89
2021/11/29 16:28:07;;;;;;;59.70;35.28;;;10.10;99.90;;;;;;5059071;28;20017;-90
2021/11/29 16:30:36;;;;;;;35.72;26.98;;;10.10;99.90;;;;;;5075881;28;20025;-89
2021/11/29 16:33:04;;;;;;;38.95;29.88;;;10.00;99.90;;;;;;5058399;28;20090;-91
2021/11/29 16:35:31;;;;;;;40.22;26.80;;;9.90;99.90;;;;;;5058673;28;20032;-91
2021/11/29 16:37:57;;;;;;;48.67;31.48;;;9.90;99.90;;;;;;5058104;28;20025;-92
2021/11/29 16:40:24;;;;;;;36.60;24.88;;;9.80;99.90;;;;;;5057994;28;20059;-91
2021/11/29 16:42:51;;;;;;;42.13;26.83;;;9.80;99.90;;;;;;5058029;28;20023;-91
2021/11/29 16:45:17;;;;;;;41.75;25.25;;;9.80;99.90;;;;;;5058873;28;20524;-93
2021/11/29 16:47:43;;;;;;;41.88;26.77;;;9.90;99.90;;;;;;5059979;28;20029;-91
2021/11/29 16:50:10;;;;;;;39.20;24.75;;;9.90;99.90;;;;;;5052087;28;20086;-88
2021/11/29 16:52:37;;;;;;;40.72;27.63;;;10.00;99.90;;;;;;5036838;28;20387;-88
2021/11/29 16:55:04;;;;;;;105.93;50.50;;;10.00;99.90;;;;;;5036848;28;20043;-88
2021/11/29 16:57:31;;;;;;;58.95;33.28;;;10.00;99.90;;;;;;5070328;28;20103;-88
2021/11/29 16:59:57;;;;;;;109.90;73.85;;;10.00;99.90;;;;;;5071954;28;20059;-87
2021/11/29 17:02:23;;;;;;;33.42;25.10;;;10.00;99.90;;;;;;5054460;28;20021;-88
2021/11/29 17:04:49;;;;;;;56.75;38.55;;;10.00;99.90;;;;;;5060550;28;20019;-89
2021/11/29 17:07:14;;;;;;;72.43;51.72;;;10.10;99.90;;;;;;5074716;28;20463;-89
2021/11/29 17:09:40;;;;;;;54.78;33.90;;;10.10;99.90;;;;;;5056496;28;20028;-87
2021/11/29 17:12:06;;;;;;;57.83;42.42;;;10.00;99.90;;;;;;5056776;28;20043;-88
2021/11/29 17:14:33;;;;;;;82.40;51.40;;;10.00;99.90;;;;;;5056399;28;20095;-89
2021/11/29 17:17:02;;;;;;;61.80;41.40;;;10.00;99.90;;;;;;5056394;28;20031;-89
2021/11/29 17:19:29;;;;;;;44.95;29.73;;;10.00;99.90;;;;;;5056803;28;20032;-89
2021/11/29 17:21:55;;;;;;;43.58;28.50;;;10.00;99.90;;;;;;5056917;28;20060;-90
2021/11/29 17:24:22;;;;;;;57.90;36.65;;;10.00;99.90;;;;;;5056842;28;20028;-90
2021/11/29 17:26:47;;;;;;;46.90;30.13;;;9.90;99.90;;;;;;5054915;28;20021;-89
2021/11/29 17:29:13;;;;;;;57.75;34.17;;;9.90;99.90;;;;;;5045164;28;20119;-89
2021/11/29 17:31:39;;;;;;;52.25;34.38;;;9.90;99.90;;;;;;5056505;28;20039;-89
2021/11/29 17:34:06;;;;;;;47.30;31.92;;;10.00;99.90;;;;;;5056106;28;20027;-89
2021/11/29 17:36:33;;;;;;;48.42;31.58;;;9.90;99.90;;;;;;5056829;28;20031;-89
2021/11/29 17:38:59;;;;;;;48.17;32.47;;;9.90;99.90;;;;;;5052369;28;20044;-90
2021/11/29 17:41:27;;;;;;;47.97;32.58;;;9.90;99.90;;;;;;5036257;28;20025;-89
2021/11/29 17:43:53;;;;;;;53.50;34.70;;;9.80;99.90;;;;;;5037039;28;20071;-89
2021/11/29 17:46:19;;;;;;;55.67;36.90;;;9.80;99.90;;;;;;5036996;28;20025;-89
2021/11/29 17:48:46;;;;;;;61.25;39.53;;;9.80;99.90;;;;;;5036102;28;20044;-92
2021/11/29 17:51:13;;;;;;;67.63;39.88;;;9.80;99.90;;;;;;5036605;28;20028;-90
2021/11/29 17:53:40;;;;;;;55.20;36.50;;;9.80;99.90;;;;;;5036465;28;20025;-89
2021/11/29 17:56:07;;;;;;;53.58;34.22;;;9.70;99.90;;;;;;5036529;28;20039;-92
2021/11/29 17:58:33;;;;;;;65.47;38.15;;;9.70;99.90;;;;;;5036968;28;20021;-91
2021/11/29 18:00:59;;;;;;;56.65;37.40;;;9.70;99.90;;;;;;5052584;28;20483;-91
2021/11/29 18:03:25;;;;;;;51.92;34.78;;;9.60;99.90;;;;;;5053457;28;20070;-90
2021/11/29 18:05:56;;;;;;;65.97;39.53;;;9.60;99.90;;;;;;5053550;28;20021;-89
2021/11/29 18:13:50;;;;;;;66.70;42.47;;;9.40;99.90;;;;;;5056237;28;20047;-90
2021/11/29 18:16:16;;;;;;;78.10;44.45;;;9.30;99.90;;;;;;5053294;28;20522;-91
2021/11/29 18:18:42;;;;;;;61.80;39.10;;;9.20;99.90;;;;;;5053084;28;20094;-90
2021/11/29 18:21:08;;;;;;;60.58;41.22;;;9.20;99.90;;;;;;5053484;28;20064;-90
2021/11/29 18:23:36;;;;;;;57.30;37.80;;;9.10;99.90;;;;;;5053573;28;20059;-93
2021/11/29 18:26:02;;;;;;;55.95;35.35;;;9.10;99.90;;;;;;5038953;28;20025;-91
2021/11/29 18:28:28;;;;;;;52.05;33.80;;;9.10;99.90;;;;;;5054288;28;20113;-91
2021/11/29 18:30:55;;;;;;;49.05;32.33;;;9.00;99.90;;;;;;5066326;28;20040;-93
2021/11/29 18:33:21;;;;;;;54.05;35.38;;;9.00;99.90;;;;;;5069208;28;20093;-94
2021/11/29 18:35:47;;;;;;;56.78;35.40;;;8.90;99.90;;;;;;5067977;28;20061;-91
2021/11/29 18:38:13;;;;;;;56.38;33.45;;;8.90;99.90;;;;;;5060554;28;20028;-92
2021/11/29 18:40:43;;;;;;;56.00;35.70;;;8.80;99.90;;;;;;5057674;28;20032;-92
2021/11/29 18:43:10;;;;;;;76.28;42.65;;;8.60;99.90;;;;;;5069819;28;20020;-93
2021/11/29 18:45:41;;;;;;;67.15;42.47;;;8.50;99.90;;;;;;5080398;28;20046;-90
2021/11/29 18:48:12;;;;;;;72.07;44.50;;;8.30;99.90;;;;;;5084855;28;20088;-89
2021/11/29 18:50:39;;;;;;;62.08;38.67;;;8.30;99.90;;;;;;5083595;28;20038;-91
2021/11/29 18:53:06;;;;;;;55.35;35.35;;;8.20;99.90;;;;;;5081102;28;20031;-89
2021/11/29 18:55:32;;;;;;;73.43;41.92;;;8.20;99.90;;;;;;5077880;28;20025;-90
2021/11/29 18:58:00;;;;;;;60.03;39.58;;;8.10;99.90;;;;;;5082669;28;20031;-92
2021/11/29 19:00:27;;;;;;;51.70;34.03;;;8.00;99.90;;;;;;5081741;28;20048;-91
2021/11/29 19:02:52;;;;;;;52.35;33.22;;;8.00;99.90;;;;;;5080234;28;20467;-90
2021/11/29 19:05:19;;;;;;;68.35;38.63;;;8.00;99.90;;;;;;5080201;28;20074;-93
2021/11/29 19:07:45;;;;;;;68.63;38.42;;;7.90;99.90;;;;;;5079095;28;20025;-90
2021/11/29 19:10:14;;;;;;;62.67;37.60;;;7.90;99.90;;;;;;5078822;28;20031;-92
2021/11/29 19:12:41;;;;;;;50.67;32.03;;;7.90;99.90;;;;;;5078498;28;20028;-93
2021/11/29 19:15:07;;;;;;;41.65;26.92;;;7.90;99.90;;;;;;5079818;28;20031;-92
2021/11/29 19:17:33;;;;;;;49.70;29.70;;;7.90;99.90;;;;;;5077965;28;20024;-91
2021/11/29 19:19:59;;;;;;;43.58;27.30;;;7.90;99.90;;;;;;5078442;28;20031;-91
2021/11/29 19:22:25;;;;;;;33.35;22.52;;;7.90;99.90;;;;;;5080433;28;20046;-91
2021/11/29 19:24:51;;;;;;;36.95;23.45;;;7.90;99.90;;;;;;5078262;28;20024;-94
2021/11/29 19:27:17;;;;;;;32.42;22.35;;;7.80;99.90;;;;;;5084493;28;20025;-95
2021/11/29 19:29:42;;;;;;;27.33;19.55;;;7.80;99.90;;;;;;5085764;28;20074;-89
2021/11/29 19:32:10;;;;;;;22.50;18.20;;;7.90;99.90;;;;;;5083564;28;20083;-93
2021/11/29 19:34:36;;;;;;;29.88;20.25;;;7.80;99.90;;;;;;5084073;28;20028;-91
2021/11/29 19:37:02;;;;;;;30.15;20.50;;;7.80;99.90;;;;;;5082202;28;20478;-89
2021/11/29 19:39:28;;;;;;;28.02;19.40;;;7.80;99.90;;;;;;5080413;28;20100;-91
2021/11/29 19:41:54;;;;;;;24.33;18.17;;;7.80;99.90;;;;;;5079042;28;20028;-91
2021/11/29 19:44:21;;;;;;;28.08;19.83;;;7.80;99.90;;;;;;5077200;28;20071;-90
2021/11/29 19:46:51;;;;;;;28.58;20.02;;;7.70;99.90;;;;;;5076058;28;20467;-92
2021/11/29 19:49:17;;;;;;;22.83;16.17;;;7.70;99.90;;;;;;5058048;28;20033;-92
2021/11/29 19:51:43;;;;;;;22.38;16.10;;;7.70;99.90;;;;;;5058193;28;20132;-93
2021/11/29 19:54:09;;;;;;;21.42;16.75;;;7.70;99.90;;;;;;5061587;28;20059;-93
2021/11/29 19:56:35;;;;;;;17.73;14.82;;;7.60;99.90;;;;;;5060872;28;20025;-92
2021/11/29 19:59:02;;;;;;;19.65;14.98;;;7.70;99.90;;;;;;5058799;28;20048;-94
2021/11/29 20:01:28;;;;;;;19.77;15.35;;;7.60;99.90;;;;;;5041973;28;20075;-91
2021/11/29 20:03:54;;;;;;;20.38;15.18;;;7.60;99.90;;;;;;5045928;28;20028;-94
2021/11/29 20:06:21;;;;;;;47.80;31.63;;;7.50;99.90;;;;;;5047677;28;20120;-96
2021/11/29 20:08:48;;;;;;;17.63;13.63;;;7.40;99.90;;;;;;5032414;28;20021;-96
2021/11/29 20:11:16;;;;;;;24.42;16.50;;;7.40;99.90;;;;;;5047399;28;20043;-92
2021/11/29 20:13:48;;;;;;;36.85;23.50;;;7.40;99.90;;;;;;5035046;28;20029;-93
2021/11/29 20:16:20;;;;;;;35.30;23.50;;;7.30;99.90;;;;;;5048519;28;20433;-94
2021/11/29 20:18:50;;;;;;;14.45;11.65;;;7.30;99.90;;;;;;5042991;28;20021;-93
2021/11/29 20:21:20;;;;;;;10.77;8.05;;;7.30;99.90;;;;;;5046790;28;20029;-91
2021/11/29 20:23:51;;;;;;;12.30;8.70;;;7.20;99.90;;;;;;5035923;28;20035;-91
2021/11/29 20:26:21;;;;;;;11.23;7.57;;;7.10;99.90;;;;;;5070792;28;20044;-92
2021/11/29 20:28:46;;;;;;;11.98;9.63;;;7.10;99.90;;;;;;5050687;28;20025;-92
2021/11/29 20:31:12;;;;;;;8.48;7.00;;;7.00;99.90;;;;;;5045180;28;20025;-94
2021/11/29 20:33:38;;;;;;;14.68;10.77;;;7.00;99.90;;;;;;5044171;28;20029;-92
2021/11/29 20:36:07;;;;;;;12.95;7.88;;;7.00;99.90;;;;;;5043266;28;20380;-94
2021/11/29 20:38:35;;;;;;;7.97;6.63;;;6.90;99.90;;;;;;5044972;28;20028;-94
2021/11/29 20:41:04;;;;;;;9.88;7.53;;;6.80;99.90;;;;;;5045589;28;20025;-94
2021/11/29 20:43:36;;;;;;;9.18;7.32;;;6.80;99.90;;;;;;5045927;28;20112;-96
2021/11/29 20:46:03;;;;;;;8.48;6.90;;;6.70;99.90;;;;;;5044095;28;20032;-94
2021/11/29 20:48:29;;;;;;;8.75;7.10;;;6.70;99.90;;;;;;5041427;28;20025;-94
2021/11/29 20:50:55;;;;;;;9.02;7.15;;;6.70;99.90;;;;;;5040636;28;20056;-94
2021/11/29 20:53:22;;;;;;;9.80;7.82;;;6.60;99.90;;;;;;5040773;28;20029;-93
2021/11/29 20:55:47;;;;;;;12.13;9.18;;;6.60;99.90;;;;;;5040114;28;20028;-93
2021/11/29 20:58:14;;;;;;;9.65;7.95;;;6.60;99.90;;;;;;5040938;28;20032;-92
2021/11/29 21:00:40;;;;;;;10.85;7.97;;;6.60;99.90;;;;;;5054776;28;20068;-92
2021/11/29 21:03:05;;;;;;;9.98;8.57;;;6.50;99.90;;;;;;5057271;28;20025;-94
2021/11/29 21:05:51;;;;;;;9.90;8.70;;;6.50;99.90;;;;;;5056525;28;20021;-94
2021/11/29 21:08:17;;;;;;;11.15;8.90;;;6.40;99.90;;;;;;5055736;28;20384;-94
2021/11/29 21:10:43;;;;;;;11.25;9.18;;;6.30;99.90;;;;;;5057071;28;20025;-91
2021/11/29 21:13:08;;;;;;;11.25;9.32;;;6.20;99.90;;;;;;5056741;28;20032;-94
2021/11/29 21:15:34;;;;;;;9.85;8.40;;;6.30;99.90;;;;;;5056561;28;20025;-95
2021/11/29 21:18:12;;;;;;;11.82;9.75;;;6.20;99.90;;;;;;5056401;28;20025;-93
2021/11/29 21:20:39;;;;;;;15.13;11.32;;;6.10;99.90;;;;;;5055724;28;20112;-92
2021/11/29 21:23:05;;;;;;;15.18;11.48;;;5.90;99.90;;;;;;5055602;28;20029;-92
2021/11/29 21:25:31;;;;;;;14.15;11.93;;;5.90;99.90;;;;;;5054772;28;20032;-90
2021/11/29 21:27:57;;;;;;;17.38;12.90;;;5.90;99.90;;;;;;5054508;28;20025;-93
2021/11/29 21:30:23;;;;;;;18.17;13.43;;;5.80;99.90;;;;;;5054803;28;20418;-90
2021/11/29 21:32:49;;;;;;;19.48;13.43;;;5.80;99.90;;;;;;5054647;28;20485;-94